地図

経路データ

SID SEASON NUMBER BASIN SUBBASIN NAME ISO_TIME NATURE LAT LON WMO_WIND WMO_PRES WMO_AGENCY TRACK_TYPE DIST2LAND LANDFALL IFLAG USA_AGENCY USA_ATCF_ID USA_LAT USA_LON USA_RECORD USA_STATUS USA_WIND USA_PRES USA_SSHS USA_R34_NE USA_R34_SE USA_R34_SW USA_R34_NW USA_R50_NE USA_R50_SE USA_R50_SW USA_R50_NW USA_R64_NE USA_R64_SE USA_R64_SW USA_R64_NW USA_POCI USA_ROCI USA_RMW USA_EYE TOKYO_LAT TOKYO_LON TOKYO_GRADE TOKYO_WIND TOKYO_PRES TOKYO_R50_DIR TOKYO_R50_LONG TOKYO_R50_SHORT TOKYO_R30_DIR TOKYO_R30_LONG TOKYO_R30_SHORT TOKYO_LAND CMA_LAT CMA_LON CMA_CAT CMA_WIND CMA_PRES HKO_LAT HKO_LON HKO_CAT HKO_WIND HKO_PRES NEWDELHI_LAT NEWDELHI_LON NEWDELHI_GRADE NEWDELHI_WIND NEWDELHI_PRES NEWDELHI_CI NEWDELHI_DP NEWDELHI_POCI REUNION_LAT REUNION_LON REUNION_TYPE REUNION_WIND REUNION_PRES REUNION_TNUM REUNION_CI REUNION_RMW REUNION_R34_NE REUNION_R34_SE REUNION_R34_SW REUNION_R34_NW REUNION_R50_NE REUNION_R50_SE REUNION_R50_SW REUNION_R50_NW REUNION_R64_NE REUNION_R64_SE REUNION_R64_SW REUNION_R64_NW BOM_LAT BOM_LON BOM_TYPE BOM_WIND BOM_PRES BOM_TNUM BOM_CI BOM_RMW BOM_R34_NE BOM_R34_SE BOM_R34_SW BOM_R34_NW BOM_R50_NE BOM_R50_SE BOM_R50_SW BOM_R50_NW BOM_R64_NE BOM_R64_SE BOM_R64_SW BOM_R64_NW BOM_ROCI BOM_POCI BOM_EYE BOM_POS_METHOD BOM_PRES_METHOD NADI_LAT NADI_LON NADI_CAT NADI_WIND NADI_PRES WELLINGTON_LAT WELLINGTON_LON WELLINGTON_WIND WELLINGTON_PRES DS824_LAT DS824_LON DS824_STAGE DS824_WIND DS824_PRES TD9636_LAT TD9636_LON TD9636_STAGE TD9636_WIND TD9636_PRES TD9635_LAT TD9635_LON TD9635_WIND TD9635_PRES TD9635_ROCI NEUMANN_LAT NEUMANN_LON NEUMANN_CLASS NEUMANN_WIND NEUMANN_PRES MLC_LAT MLC_LON MLC_CLASS MLC_WIND MLC_PRES USA_GUST BOM_GUST BOM_GUST_PER REUNION_GUST REUNION_GUST_PER USA_SEAHGT USA_SEARAD_NE USA_SEARAD_SE USA_SEARAD_SW USA_SEARAD_NW STORM_SPEED STORM_DIR
1945261N16121 1945 61 WP MM NOT_NAMED 1945-09-17 12:00:00 NR 15.7000 120.600 main 0 0 __________O___ -1 15.7000 120.600 3 11 259
1945261N16121 1945 61 WP MM NOT_NAMED 1945-09-17 15:00:00 NR 15.5950 120.060 main 0 0 __________P___ -1 15.5950 120.060 3 10 258
1945261N16121 1945 61 WP MM NOT_NAMED 1945-09-17 18:00:00 NR 15.4914 119.537 main 44 44 __________P___ -1 15.4914 119.537 3 10 258
1945261N16121 1945 61 WP MM NOT_NAMED 1945-09-17 21:00:00 NR 15.3921 119.045 main 96 96 __________P___ -1 15.3921 119.045 3 9 258
1945261N16121 1945 61 WP MM NOT_NAMED 1945-09-18 00:00:00 NR 15.3000 118.600 main 139 139 __________O___ -1 15.3000 118.600 4 8 258
1945261N16121 1945 61 WP MM NOT_NAMED 1945-09-18 03:00:00 NR 15.2188 118.211 main 183 183 __________P___ -1 15.2188 118.211 4 7 258
1945261N16121 1945 61 WP MM NOT_NAMED 1945-09-18 06:00:00 NR 15.1542 117.863 main 212 212 __________P___ -1 15.1542 117.863 4 7 261
1945261N16121 1945 61 WP MM NOT_NAMED 1945-09-18 09:00:00 NR 15.1126 117.533 main 256 256 __________P___ -1 15.1126 117.533 4 6 265
1945261N16121 1945 61 WP MM NOT_NAMED 1945-09-18 12:00:00 NR 15.1000 117.200 main 286 286 __________O___ -1 15.1000 117.200 4 7 271
1945261N16121 1945 61 WP MM NOT_NAMED 1945-09-18 15:00:00 NR 15.1252 116.832 main 326 326 __________P___ -1 15.1252 116.832 4 7 276
1945261N16121 1945 61 WP MM NOT_NAMED 1945-09-18 18:00:00 NR 15.1773 116.458 main 354 354 __________P___ -1 15.1773 116.458 4 7 279
1945261N16121 1945 61 WP MM NOT_NAMED 1945-09-18 21:00:00 NR 15.2408 116.079 main 395 395 __________P___ -1 15.2408 116.079 4 7 280
1945261N16121 1945 61 WP MM NOT_NAMED 1945-09-19 00:00:00 NR 15.3000 115.700 main 435 435 __________O___ -1 15.3000 115.700 4 7 276
1945261N16121 1945 61 WP MM NOT_NAMED 1945-09-19 03:00:00 NR 15.3239 115.321 main 477 477 __________P___ -1 15.3239 115.321 4 7 273
1945261N16121 1945 61 WP MM NOT_NAMED 1945-09-19 06:00:00 NR 15.3423 114.942 main 520 520 __________P___ -1 15.3423 114.942 4 7 273
1945261N16121 1945 61 WP MM NOT_NAMED 1945-09-19 09:00:00 NR 15.3646 114.568 main 550 547 __________P___ -1 15.3646 114.568 4 7 275
1945261N16121 1945 61 WP MM NOT_NAMED 1945-09-19 12:00:00 NR 15.4000 114.200 main 547 516 __________O___ -1 15.4000 114.200 4 7 279
1945261N16121 1945 61 WP MM NOT_NAMED 1945-09-19 15:00:00 NR 15.4724 113.859 main 516 478 __________P___ -1 15.4724 113.859 4 7 284
1945261N16121 1945 61 WP MM NOT_NAMED 1945-09-19 18:00:00 NR 15.5569 113.523 main 478 451 __________P___ -1 15.5569 113.523 4 7 284
1945261N16121 1945 61 WP MM NOT_NAMED 1945-09-19 21:00:00 NR 15.6380 113.175 main 451 412 __________P___ -1 15.6380 113.175 4 7 282
1945261N16121 1945 61 WP MM NOT_NAMED 1945-09-20 00:00:00 NR 15.7000 112.800 main 412 371 __________O___ -1 15.7000 112.800 4 8 277
1945261N16121 1945 61 WP MM NOT_NAMED 1945-09-20 03:00:00 NR 15.7313 112.387 main 371 330 __________P___ -1 15.7313 112.387 4 8 273
1945261N16121 1945 61 WP MM NOT_NAMED 1945-09-20 06:00:00 NR 15.7361 111.942 main 320 280 __________P___ -1 15.7361 111.942 4 9 269
1945261N16121 1945 61 WP MM NOT_NAMED 1945-09-20 09:00:00 NR 15.7228 111.476 main 280 232 __________P___ -1 15.7228 111.476 4 9 268
1945261N16121 1945 61 WP MM NOT_NAMED 1945-09-20 12:00:00 NR 15.7000 111.000 main 232 __________O___ -1 15.7000 111.000 4 9 267

デジタル台風データ・検索

IBTrACS Databaseについて

本データベースは、米国NOAAが公開する1842年以降の世界の熱帯低気圧のベストトラックデータアーカイブInternational Best Track Archive for Climate Stewardship (IBTrACS)を、ウェブで閲覧しやすい形式に変換したものです。

最終更新日:2021-12-06